Time;durP1;ratioP1;P1;durP2;ratioP2;P2;SDS_P1;SDS_P2;PMS_P1;PMS_P2;Temp;Humidity;BMP_temperature;BMP_pressure;BME280_temperature;BME280_humidity;BME280_pressure;Samples;Min_cycle;Max_cycle;Signal;HPM_P1;HPM_P2
2023/08/01 00:00:40;;;;;;;;;;;21.70;65.50;;;;;;5050204;28;19939;-61
2023/08/01 00:03:07;;;;;;;;;;;21.70;65.50;;;;;;5053813;28;19932;-62
2023/08/01 00:05:34;;;;;;;;;;;21.60;65.30;;;;;;5043754;28;19937;-63
2023/08/01 00:08:02;;;;;;;;;;;21.70;65.40;;;;;;5042662;28;19936;-63
2023/08/01 00:10:29;;;;;;;;;;;21.60;65.30;;;;;;5037139;28;19928;-64
2023/08/01 00:12:56;;;;;;;;;;;21.60;65.30;;;;;;5036282;28;19925;-62
2023/08/01 00:15:24;;;;;;;;;;;21.60;66.00;;;;;;5061839;28;19935;-63
2023/08/01 00:17:50;;;;;;;;;;;21.70;65.30;;;;;;5038953;28;19932;-63
2023/08/01 00:20:17;;;;;;;;;;;21.70;66.10;;;;;;5055116;28;19925;-63
2023/08/01 00:22:44;;;;;;;;;;;21.70;65.30;;;;;;5037888;28;19983;-62
2023/08/01 00:25:11;;;;;;;;;;;21.60;65.10;;;;;;5040439;28;19925;-65
2023/08/01 00:27:38;;;;;;;;;;;21.70;65.20;;;;;;5043275;28;19925;-61
2023/08/01 00:30:05;;;;;;;;;;;21.70;65.20;;;;;;5056232;28;19932;-63
2023/08/01 00:32:33;;;;;;;;;;;21.70;65.20;;;;;;5056663;28;19924;-64
2023/08/01 00:35:00;;;;;;;;;;;21.60;65.00;;;;;;5056024;28;19955;-62
2023/08/01 00:37:27;;;;;;;;;;;21.70;65.10;;;;;;5050831;28;19986;-59
2023/08/01 00:39:54;;;;;;;;;;;21.60;65.10;;;;;;5044634;28;19982;-63
2023/08/01 00:42:20;;;;;;;;;;;21.70;65.00;;;;;;5049926;28;20404;-62
2023/08/01 00:44:48;;;;;;;;;;;21.60;64.90;;;;;;5051655;28;19925;-63
2023/08/01 00:47:15;;;;;;;;;;;21.70;65.00;;;;;;5049707;28;19925;-63
2023/08/01 00:49:43;;;;;;;;;;;21.70;65.00;;;;;;5047051;28;19932;-62
2023/08/01 00:52:10;;;;;;;;;;;21.70;65.00;;;;;;5056223;28;19925;-64
2023/08/01 00:54:37;;;;;;;;;;;21.70;64.90;;;;;;5042612;28;19995;-59
2023/08/01 00:57:04;;;;;;;;;;;21.70;65.00;;;;;;5048958;28;19957;-62
2023/08/01 00:59:30;;;;;;;;;;;21.70;64.90;;;;;;5052900;28;19925;-58
2023/08/01 01:01:57;;;;;;;;;;;21.70;64.90;;;;;;5044013;28;19929;-61
2023/08/01 01:04:24;;;;;;;;;;;21.70;64.90;;;;;;5041219;28;19982;-63
2023/08/01 01:06:54;;;;;;;;;;;21.70;64.90;;;;;;5054362;28;19925;-63
2023/08/01 01:09:21;;;;;;;;;;;21.70;64.90;;;;;;5044881;28;19931;-63
2023/08/01 01:11:47;;;;;;;;;;;21.70;64.90;;;;;;5052077;28;19936;-63
2023/08/01 01:14:14;;;;;;;;;;;21.70;64.80;;;;;;5051125;28;19929;-62
2023/08/01 01:16:41;;;;;;;;;;;21.70;64.80;;;;;;5047072;28;19929;-62
2023/08/01 01:19:08;;;;;;;;;;;21.70;64.70;;;;;;5045795;28;19924;-63
2023/08/01 01:21:37;;;;;;;;;;;21.70;64.80;;;;;;5057291;28;19935;-60
2023/08/01 01:24:03;;;;;;;;;;;21.70;64.80;;;;;;5053926;28;19925;-64
2023/08/01 01:26:30;;;;;;;;;;;21.70;64.70;;;;;;5044712;28;19931;-61
2023/08/01 01:28:57;;;;;;;;;;;21.70;64.70;;;;;;5041112;28;20329;-64
2023/08/01 01:31:24;;;;;;;;;;;21.70;64.70;;;;;;5033981;28;19939;-62
2023/08/01 01:33:51;;;;;;;;;;;21.70;65.50;;;;;;5055915;28;19986;-62
2023/08/01 01:36:17;;;;;;;;;;;21.60;64.60;;;;;;5047583;28;19929;-63
2023/08/01 01:38:46;;;;;;;;;;;21.70;64.70;;;;;;5065235;28;19928;-63
2023/08/01 01:41:12;;;;;;;;;;;21.70;64.70;;;;;;5060397;28;19932;-64
2023/08/01 01:43:40;;;;;;;;;;;21.70;64.70;;;;;;5045465;28;19932;-60
2023/08/01 01:46:07;;;;;;;;;;;21.60;64.50;;;;;;5052048;28;19925;-63
2023/08/01 01:48:34;;;;;;;;;;;21.70;64.70;;;;;;5044481;28;19924;-63
2023/08/01 01:51:01;;;;;;;;;;;21.70;64.70;;;;;;5054160;28;19935;-63
2023/08/01 01:53:27;;;;;;;;;;;21.70;64.60;;;;;;5039270;28;19937;-62
2023/08/01 01:55:56;;;;;;;;;;;21.70;64.60;;;;;;5046039;28;19936;-64
2023/08/01 01:58:23;;;;;;;;;;;21.70;64.60;;;;;;5043250;28;19978;-61
2023/08/01 02:00:50;;;;;;;;;;;21.70;64.70;;;;;;5051371;28;19928;-63
2023/08/01 02:03:16;;;;;;;;;;;21.60;64.60;;;;;;5070194;28;19925;-63
2023/08/01 02:05:43;;;;;;;;;;;21.60;64.50;;;;;;5048479;28;19933;-63
2023/08/01 02:08:10;;;;;;;;;;;21.70;64.70;;;;;;5066329;28;19929;-62
2023/08/01 02:10:37;;;;;;;;;;;21.70;64.60;;;;;;5042306;28;19987;-64
2023/08/01 02:13:05;;;;;;;;;;;21.70;64.60;;;;;;5046983;28;19936;-63
2023/08/01 02:15:32;;;;;;;;;;;21.70;64.60;;;;;;5059166;28;19925;-62
2023/08/01 02:17:58;;;;;;;;;;;21.70;64.60;;;;;;5060305;28;19978;-62
2023/08/01 02:20:26;;;;;;;;;;;21.70;64.60;;;;;;5051840;28;20398;-62
2023/08/01 02:22:53;;;;;;;;;;;21.70;64.60;;;;;;5045588;28;19925;-64
2023/08/01 02:25:19;;;;;;;;;;;21.70;64.60;;;;;;5041192;28;19925;-63
2023/08/01 02:27:46;;;;;;;;;;;21.70;64.60;;;;;;5070780;28;19990;-63
2023/08/01 02:30:15;;;;;;;;;;;21.70;64.60;;;;;;5035740;28;19929;-62
2023/08/01 02:32:42;;;;;;;;;;;21.70;64.60;;;;;;5048630;28;19924;-64
2023/08/01 02:35:09;;;;;;;;;;;21.70;64.60;;;;;;5045877;28;19968;-61
2023/08/01 02:37:36;;;;;;;;;;;21.60;64.50;;;;;;5049443;28;20393;-64
2023/08/01 02:40:07;;;;;;;;;;;21.60;64.50;;;;;;5043777;28;19932;-61
2023/08/01 02:42:33;;;;;;;;;;;21.70;64.60;;;;;;5042913;28;19971;-63
2023/08/01 02:45:00;;;;;;;;;;;21.60;64.50;;;;;;5053015;28;19925;-63
2023/08/01 02:47:29;;;;;;;;;;;21.60;64.50;;;;;;5051273;28;19924;-60
2023/08/01 02:49:56;;;;;;;;;;;21.60;64.40;;;;;;5052252;28;19936;-62
2023/08/01 02:52:22;;;;;;;;;;;21.70;64.50;;;;;;5049124;28;19929;-63
2023/08/01 02:54:49;;;;;;;;;;;21.70;64.40;;;;;;5038576;28;19983;-61
2023/08/01 02:57:16;;;;;;;;;;;21.60;64.40;;;;;;5047651;28;20416;-63
2023/08/01 02:59:43;;;;;;;;;;;21.70;64.40;;;;;;5033326;28;19975;-63
2023/08/01 03:02:09;;;;;;;;;;;21.60;64.30;;;;;;5041985;28;19931;-63
2023/08/01 03:04:38;;;;;;;;;;;21.70;64.50;;;;;;5051230;28;19984;-64
2023/08/01 03:07:05;;;;;;;;;;;21.60;64.30;;;;;;5051014;28;19929;-64
2023/08/01 03:09:33;;;;;;;;;;;21.60;64.30;;;;;;5045071;28;19936;-61
2023/08/01 03:11:59;;;;;;;;;;;21.70;64.40;;;;;;5067569;28;19936;-65
2023/08/01 03:14:26;;;;;;;;;;;21.70;64.40;;;;;;5047783;28;19928;-63
2023/08/01 03:16:53;;;;;;;;;;;21.60;64.20;;;;;;5051769;28;19935;-63
2023/08/01 03:19:20;;;;;;;;;;;21.70;64.30;;;;;;5049417;28;19955;-61
2023/08/01 03:21:48;;;;;;;;;;;21.70;64.40;;;;;;5051530;28;19925;-63
2023/08/01 03:24:14;;;;;;;;;;;21.60;64.30;;;;;;5054430;28;19924;-63
2023/08/01 03:26:41;;;;;;;;;;;21.70;64.30;;;;;;5056645;28;19932;-64
2023/08/01 03:29:08;;;;;;;;;;;21.70;64.30;;;;;;5057432;28;19925;-63
2023/08/01 03:31:35;;;;;;;;;;;21.70;64.30;;;;;;5042193;28;20428;-63
2023/08/01 03:34:02;;;;;;;;;;;21.60;64.20;;;;;;5042265;28;19970;-61
2023/08/01 03:36:29;;;;;;;;;;;21.60;64.20;;;;;;5053820;28;20286;-63
2023/08/01 03:38:57;;;;;;;;;;;21.60;64.20;;;;;;5044329;28;20023;-62
2023/08/01 03:41:24;;;;;;;;;;;21.60;64.20;;;;;;5042724;28;19925;-63
2023/08/01 03:43:51;;;;;;;;;;;21.60;64.20;;;;;;5051082;28;19940;-62
2023/08/01 03:46:17;;;;;;;;;;;21.70;64.30;;;;;;5068571;28;19924;-63
2023/08/01 03:48:44;;;;;;;;;;;21.70;64.30;;;;;;5052862;28;19933;-60
2023/08/01 03:51:11;;;;;;;;;;;21.60;64.10;;;;;;5045648;28;19929;-64
2023/08/01 03:53:38;;;;;;;;;;;21.60;64.10;;;;;;5055382;28;20381;-63
2023/08/01 03:56:06;;;;;;;;;;;21.70;64.20;;;;;;5054181;28;20294;-63
2023/08/01 03:58:33;;;;;;;;;;;21.60;64.00;;;;;;5049037;28;19932;-62
2023/08/01 04:00:59;;;;;;;;;;;21.70;64.10;;;;;;5050470;28;19960;-62
2023/08/01 04:03:26;;;;;;;;;;;21.60;64.00;;;;;;5042087;28;19929;-60
2023/08/01 04:05:53;;;;;;;;;;;21.70;64.10;;;;;;5053566;28;20385;-64
2023/08/01 04:08:20;;;;;;;;;;;21.60;64.00;;;;;;5067790;28;19925;-61
2023/08/01 04:10:47;;;;;;;;;;;21.70;64.10;;;;;;5038553;28;19961;-62
2023/08/01 04:13:15;;;;;;;;;;;21.60;64.00;;;;;;5044615;28;19948;-62
2023/08/01 04:15:42;;;;;;;;;;;21.70;64.00;;;;;;5052767;28;19928;-61
2023/08/01 04:18:09;;;;;;;;;;;21.60;63.90;;;;;;5051831;28;19933;-64
2023/08/01 04:20:36;;;;;;;;;;;21.70;64.10;;;;;;5060621;28;19928;-64
2023/08/01 04:23:02;;;;;;;;;;;21.60;63.90;;;;;;5048896;28;19929;-60
2023/08/01 04:25:29;;;;;;;;;;;21.60;63.90;;;;;;5050260;28;19925;-61
2023/08/01 04:27:56;;;;;;;;;;;21.60;63.90;;;;;;5052644;28;19936;-64
2023/08/01 04:30:24;;;;;;;;;;;21.70;64.00;;;;;;5045776;28;19933;-64
2023/08/01 04:32:51;;;;;;;;;;;21.70;64.00;;;;;;5037448;28;19936;-64
2023/08/01 04:35:18;;;;;;;;;;;21.60;63.80;;;;;;5053671;28;19925;-63
2023/08/01 04:37:45;;;;;;;;;;;21.60;63.90;;;;;;5047135;28;20452;-62
2023/08/01 04:40:12;;;;;;;;;;;21.60;63.80;;;;;;5052812;28;19925;-63
2023/08/01 04:42:39;;;;;;;;;;;21.70;63.90;;;;;;5052679;28;19929;-62
2023/08/01 04:45:06;;;;;;;;;;;21.60;63.80;;;;;;5050160;28;20332;-62
2023/08/01 04:47:35;;;;;;;;;;;21.60;63.70;;;;;;5040497;28;20430;-63
2023/08/01 04:50:01;;;;;;;;;;;21.70;63.80;;;;;;5049875;28;19928;-64
2023/08/01 04:52:28;;;;;;;;;;;21.60;63.70;;;;;;5044174;28;19929;-63
2023/08/01 04:54:55;;;;;;;;;;;21.60;63.70;;;;;;5052757;28;19924;-61
2023/08/01 04:57:22;;;;;;;;;;;21.60;63.70;;;;;;5052371;28;19925;-63
2023/08/01 04:59:49;;;;;;;;;;;21.60;63.70;;;;;;5051180;28;19929;-63
2023/08/01 05:02:15;;;;;;;;;;;21.60;63.70;;;;;;5052456;28;19925;-64
2023/08/01 05:04:44;;;;;;;;;;;21.60;63.70;;;;;;5064165;28;19925;-64
2023/08/01 05:07:11;;;;;;;;;;;21.60;63.60;;;;;;5049881;28;19987;-63
2023/08/01 05:09:37;;;;;;;;;;;21.60;63.60;;;;;;5044461;28;19932;-62
2023/08/01 05:12:05;;;;;;;;;;;21.60;63.60;;;;;;5051872;28;19940;-60
2023/08/01 05:14:32;;;;;;;;;;;21.60;63.60;;;;;;5051519;28;19925;-62
2023/08/01 05:16:58;;;;;;;;;;;21.60;63.60;;;;;;5051683;28;19933;-63
2023/08/01 05:19:25;;;;;;;;;;;21.60;63.60;;;;;;5049975;28;19931;-61
2023/08/01 05:21:53;;;;;;;;;;;21.60;63.60;;;;;;5050999;28;19928;-62
2023/08/01 05:24:20;;;;;;;;;;;21.60;63.50;;;;;;5048162;28;19955;-63
2023/08/01 05:26:46;;;;;;;;;;;21.60;63.60;;;;;;5045055;28;19925;-64
2023/08/01 05:29:13;;;;;;;;;;;21.60;63.50;;;;;;5048672;28;19925;-60
2023/08/01 05:31:40;;;;;;;;;;;21.60;63.50;;;;;;5044073;28;19979;-64
2023/08/01 05:34:07;;;;;;;;;;;21.60;63.40;;;;;;5045429;28;19991;-64
2023/08/01 05:36:33;;;;;;;;;;;21.60;63.40;;;;;;5047024;28;19983;-62
2023/08/01 05:39:01;;;;;;;;;;;21.60;63.40;;;;;;5040562;28;19983;-64
2023/08/01 05:41:28;;;;;;;;;;;21.60;63.40;;;;;;5038358;28;19947;-61
2023/08/01 05:43:55;;;;;;;;;;;21.60;63.30;;;;;;5043004;28;19975;-64
2023/08/01 05:46:22;;;;;;;;;;;21.60;64.00;;;;;;5048574;28;19925;-62
2023/08/01 05:48:48;;;;;;;;;;;21.60;63.30;;;;;;5040696;28;20043;-60
2023/08/01 05:51:15;;;;;;;;;;;21.60;63.30;;;;;;5042677;28;19929;-62
2023/08/01 05:53:42;;;;;;;;;;;21.60;63.30;;;;;;5053018;28;19932;-61
2023/08/01 05:56:10;;;;;;;;;;;21.60;63.30;;;;;;5046978;28;19925;-63
2023/08/01 05:58:37;;;;;;;;;;;21.60;63.30;;;;;;5042769;28;19933;-64
2023/08/01 06:01:03;;;;;;;;;;;21.60;63.20;;;;;;5046509;28;19924;-62
2023/08/01 06:03:30;;;;;;;;;;;21.60;63.20;;;;;;5043099;28;19930;-64
2023/08/01 06:05:57;;;;;;;;;;;21.60;63.20;;;;;;5045507;28;19931;-62
2023/08/01 06:08:24;;;;;;;;;;;21.60;63.10;;;;;;5048575;28;19987;-60
2023/08/01 06:10:50;;;;;;;;;;;21.60;63.00;;;;;;5048244;28;19932;-62
2023/08/01 06:13:19;;;;;;;;;;;21.60;63.00;;;;;;5058395;28;19983;-63
2023/08/01 06:15:46;;;;;;;;;;;21.60;63.00;;;;;;5048554;28;20270;-61
2023/08/01 06:18:13;;;;;;;;;;;21.60;63.00;;;;;;5047277;28;19968;-63
2023/08/01 06:20:39;;;;;;;;;;;21.60;62.90;;;;;;5040658;28;19940;-59
2023/08/01 06:23:06;;;;;;;;;;;21.60;62.80;;;;;;5047913;28;19925;-65
2023/08/01 06:25:33;;;;;;;;;;;21.60;62.80;;;;;;5034817;28;19924;-67
2023/08/01 06:28:00;;;;;;;;;;;21.60;62.80;;;;;;5038118;28;19929;-68
2023/08/01 06:30:28;;;;;;;;;;;21.60;62.80;;;;;;5050738;28;19932;-67
2023/08/01 06:32:55;;;;;;;;;;;21.60;62.80;;;;;;5044547;28;19931;-69
2023/08/01 06:35:22;;;;;;;;;;;21.60;62.80;;;;;;5048397;28;19978;-65
2023/08/01 06:37:48;;;;;;;;;;;21.60;62.80;;;;;;5050097;28;19971;-65
2023/08/01 06:40:15;;;;;;;;;;;21.50;62.80;;;;;;5044590;28;19928;-64
2023/08/01 06:42:42;;;;;;;;;;;21.50;62.70;;;;;;5049090;28;19925;-65
2023/08/01 06:45:09;;;;;;;;;;;21.50;62.60;;;;;;5039542;28;20011;-68
2023/08/01 06:47:38;;;;;;;;;;;21.50;62.60;;;;;;5069965;28;19928;-66
2023/08/01 06:50:05;;;;;;;;;;;21.50;62.30;;;;;;5052313;28;19931;-65
2023/08/01 06:52:31;;;;;;;;;;;21.40;62.10;;;;;;5042171;28;20488;-70
2023/08/01 06:54:58;;;;;;;;;;;21.40;62.10;;;;;;5039633;28;19929;-67
2023/08/01 06:57:25;;;;;;;;;;;21.40;62.00;;;;;;5048647;28;19928;-68
2023/08/01 06:59:52;;;;;;;;;;;21.40;62.00;;;;;;5049604;28;19925;-64
2023/08/01 07:02:19;;;;;;;;;;;21.40;62.00;;;;;;5048653;28;19951;-65
2023/08/01 07:04:47;;;;;;;;;;;21.40;62.00;;;;;;5046360;28;19975;-65
2023/08/01 07:07:14;;;;;;;;;;;21.40;62.00;;;;;;5048807;28;19929;-66
2023/08/01 07:09:40;;;;;;;;;;;21.30;61.80;;;;;;5028029;28;19963;-64
2023/08/01 07:12:07;;;;;;;;;;;21.30;61.70;;;;;;5046220;28;19928;-62
2023/08/01 07:14:34;;;;;;;;;;;21.30;61.70;;;;;;5044661;28;19937;-65
2023/08/01 07:17:01;;;;;;;;;;;21.30;61.80;;;;;;5036413;28;19929;-66
2023/08/01 07:19:28;;;;;;;;;;;21.30;61.80;;;;;;5037243;28;19928;-64
2023/08/01 07:21:56;;;;;;;;;;;21.30;61.80;;;;;;5045707;28;20191;-64
2023/08/01 07:24:22;;;;;;;;;;;21.30;61.80;;;;;;5034692;28;19986;-65
2023/08/01 07:26:49;;;;;;;;;;;21.30;61.80;;;;;;5047626;28;19928;-65
2023/08/01 07:29:16;;;;;;;;;;;21.30;61.70;;;;;;5040632;28;19932;-65
2023/08/01 07:31:43;;;;;;;;;;;21.30;61.90;;;;;;5048662;28;19953;-65
2023/08/01 07:34:10;;;;;;;;;;;21.30;62.00;;;;;;5043704;28;19929;-64
2023/08/01 07:36:37;;;;;;;;;;;21.30;62.30;;;;;;5043919;28;19932;-64
2023/08/01 07:39:05;;;;;;;;;;;21.20;62.20;;;;;;5066497;28;19925;-64
2023/08/01 07:41:33;;;;;;;;;;;21.20;62.30;;;;;;5046787;28;19925;-65
2023/08/01 07:43:59;;;;;;;;;;;21.20;62.30;;;;;;5046732;28;19929;-65
2023/08/01 07:46:26;;;;;;;;;;;21.20;62.30;;;;;;5039904;28;19995;-65
2023/08/01 07:48:54;;;;;;;;;;;21.20;62.50;;;;;;5036284;28;19971;-64
2023/08/01 07:51:20;;;;;;;;;;;21.20;62.50;;;;;;5039851;28;19924;-65
2023/08/01 07:53:47;;;;;;;;;;;21.20;62.40;;;;;;5045416;28;19998;-63
2023/08/01 07:56:15;;;;;;;;;;;21.20;62.40;;;;;;5041813;28;19995;-65
2023/08/01 07:58:42;;;;;;;;;;;21.20;62.60;;;;;;5046190;28;19933;-68
2023/08/01 08:01:09;;;;;;;;;;;21.20;62.70;;;;;;5045342;28;19978;-64
2023/08/01 08:03:36;;;;;;;;;;;21.20;62.80;;;;;;5041627;28;19925;-65
2023/08/01 08:06:03;;;;;;;;;;;21.20;63.00;;;;;;5060657;28;19928;-61
2023/08/01 08:08:31;;;;;;;;;;;21.20;63.30;;;;;;5033368;28;19928;-66
2023/08/01 08:10:58;;;;;;;;;;;21.20;63.30;;;;;;5040545;28;19935;-66
2023/08/01 08:13:27;;;;;;;;;;;21.20;63.30;;;;;;5043369;28;19935;-64
2023/08/01 08:15:54;;;;;;;;;;;21.20;63.40;;;;;;5043761;28;19932;-66
2023/08/01 08:18:21;;;;;;;;;;;21.20;63.30;;;;;;5057142;28;19925;-67
2023/08/01 08:20:47;;;;;;;;;;;21.20;63.20;;;;;;5048904;28;19925;-66
2023/08/01 08:23:14;;;;;;;;;;;21.20;63.20;;;;;;5048729;28;19924;-63
2023/08/01 08:25:41;;;;;;;;;;;21.30;63.30;;;;;;5039218;28;19947;-65
2023/08/01 08:28:08;;;;;;;;;;;21.30;63.20;;;;;;5050521;28;19931;-68
2023/08/01 08:30:37;;;;;;;;;;;21.30;63.10;;;;;;5043534;28;19928;-66
2023/08/01 08:33:06;;;;;;;;;;;21.30;63.00;;;;;;5050565;28;20290;-67
2023/08/01 08:35:33;;;;;;;;;;;21.30;63.20;;;;;;5063688;28;19932;-69
2023/08/01 08:38:00;;;;;;;;;;;21.30;63.20;;;;;;5043188;28;19929;-65
2023/08/01 08:40:27;;;;;;;;;;;21.30;63.10;;;;;;5047071;28;19979;-66
2023/08/01 08:42:53;;;;;;;;;;;21.30;63.20;;;;;;5045169;28;19925;-65
2023/08/01 08:45:20;;;;;;;;;;;21.30;63.30;;;;;;5046883;28;20024;-71
2023/08/01 08:47:49;;;;;;;;;;;21.30;63.30;;;;;;5043221;28;19940;-67
2023/08/01 08:50:16;;;;;;;;;;;21.30;63.30;;;;;;5048826;28;19983;-65
2023/08/01 08:52:43;;;;;;;;;;;21.30;63.30;;;;;;5049925;28;19975;-64
2023/08/01 08:55:10;;;;;;;;;;;21.40;63.40;;;;;;5051069;28;19939;-63
2023/08/01 08:57:36;;;;;;;;;;;21.40;63.30;;;;;;5044043;28;19929;-66
2023/08/01 09:00:04;;;;;;;;;;;21.40;63.30;;;;;;5063575;28;19936;-66
2023/08/01 09:02:31;;;;;;;;;;;21.40;63.30;;;;;;5065521;28;19928;-67
2023/08/01 09:04:59;;;;;;;;;;;21.30;63.20;;;;;;5043021;28;19948;-63
2023/08/01 09:07:27;;;;;;;;;;;21.30;63.20;;;;;;5049808;28;19978;-65
2023/08/01 09:09:54;;;;;;;;;;;21.40;63.40;;;;;;5064139;28;19925;-71
2023/08/01 09:12:20;;;;;;;;;;;21.40;63.40;;;;;;5047780;28;20382;-68
2023/08/01 09:14:47;;;;;;;;;;;21.40;63.40;;;;;;5050995;28;19929;-73
2023/08/01 09:17:16;;;;;;;;;;;21.40;63.40;;;;;;5050604;28;19925;-64
2023/08/01 09:19:43;;;;;;;;;;;21.40;63.30;;;;;;5039591;28;19925;-69
2023/08/01 09:22:14;;;;;;;;;;;21.40;63.20;;;;;;5051355;28;19982;-71
2023/08/01 09:24:51;;;;;;;;;;;21.40;63.20;;;;;;5042016;28;19928;-66
2023/08/01 09:27:17;;;;;;;;;;;21.40;63.10;;;;;;5041454;28;19928;-68
2023/08/01 09:29:44;;;;;;;;;;;21.40;63.10;;;;;;5042669;28;19987;-69
2023/08/01 09:32:15;;;;;;;;;;;21.40;63.00;;;;;;5044874;28;19936;-69
2023/08/01 09:34:41;;;;;;;;;;;21.40;63.00;;;;;;5042755;28;19925;-67
2023/08/01 09:37:08;;;;;;;;;;;21.40;63.00;;;;;;5047180;28;20019;-64
2023/08/01 09:39:37;;;;;;;;;;;21.40;63.20;;;;;;5039840;28;19929;-65
2023/08/01 09:42:04;;;;;;;;;;;21.40;63.20;;;;;;5049426;28;19955;-65
2023/08/01 09:44:31;;;;;;;;;;;21.40;63.30;;;;;;5044055;28;19940;-62
2023/08/01 09:46:58;;;;;;;;;;;21.40;63.30;;;;;;5048824;28;19929;-68
2023/08/01 09:49:25;;;;;;;;;;;21.40;63.30;;;;;;5039322;28;19925;-65
2023/08/01 09:51:52;;;;;;;;;;;21.40;63.50;;;;;;5042277;28;19925;-66
2023/08/01 09:54:18;;;;;;;;;;;21.40;63.40;;;;;;5046643;28;19932;-62
2023/08/01 09:56:48;;;;;;;;;;;21.40;63.30;;;;;;5045303;28;19932;-66
2023/08/01 09:59:16;;;;;;;;;;;21.40;63.30;;;;;;5038312;28;19960;-63
2023/08/01 10:01:43;;;;;;;;;;;21.40;63.20;;;;;;5042572;28;19924;-68
2023/08/01 10:04:10;;;;;;;;;;;21.40;63.10;;;;;;5052121;28;19935;-68
2023/08/01 10:06:38;;;;;;;;;;;21.50;63.10;;;;;;5051760;28;19929;-68
2023/08/01 10:09:04;;;;;;;;;;;21.50;63.00;;;;;;5049970;28;20023;-63
2023/08/01 10:11:34;;;;;;;;;;;21.40;62.70;;;;;;5060509;28;19932;-65
2023/08/01 10:14:03;;;;;;;;;;;21.50;62.70;;;;;;5048026;28;19939;-62
2023/08/01 10:16:30;;;;;;;;;;;21.50;62.60;;;;;;5042217;28;19931;-64
2023/08/01 10:18:57;;;;;;;;;;;21.50;62.50;;;;;;5039655;28;19936;-66
2023/08/01 10:21:25;;;;;;;;;;;21.50;62.30;;;;;;5051806;28;19929;-65
2023/08/01 10:23:52;;;;;;;;;;;21.50;62.20;;;;;;5044514;28;19931;-66
2023/08/01 10:26:19;;;;;;;;;;;21.50;62.00;;;;;;5048769;28;19925;-64
2023/08/01 10:28:50;;;;;;;;;;;21.50;62.10;;;;;;5042373;28;19936;-64
2023/08/01 10:31:19;;;;;;;;;;;21.60;62.20;;;;;;5050162;28;19931;-68
2023/08/01 10:33:46;;;;;;;;;;;21.50;62.00;;;;;;5046298;28;19924;-63
2023/08/01 10:36:14;;;;;;;;;;;21.60;62.10;;;;;;5051480;28;19928;-68
2023/08/01 10:38:48;;;;;;;;;;;21.60;62.10;;;;;;5041173;28;19971;-65
2023/08/01 10:41:21;;;;;;;;;;;21.60;62.10;;;;;;5046706;28;19946;-66
2023/08/01 10:43:48;;;;;;;;;;;21.60;62.00;;;;;;5042462;28;19929;-67
2023/08/01 10:46:14;;;;;;;;;;;21.60;62.00;;;;;;5044646;28;19928;-61
2023/08/01 10:48:50;;;;;;;;;;;21.60;61.90;;;;;;5044910;28;20329;-62
2023/08/01 10:51:17;;;;;;;;;;;21.70;62.10;;;;;;5048962;28;19928;-62
2023/08/01 10:53:43;;;;;;;;;;;21.70;62.10;;;;;;5050953;28;20234;-62
2023/08/01 10:56:16;;;;;;;;;;;21.70;62.00;;;;;;5050325;28;19936;-63
2023/08/01 10:58:43;;;;;;;;;;;21.70;62.00;;;;;;5050129;28;19992;-61
2023/08/01 11:01:10;;;;;;;;;;;21.70;62.00;;;;;;5035405;28;19925;-61
2023/08/01 11:03:36;;;;;;;;;;;21.70;61.90;;;;;;5040763;28;19932;-61
2023/08/01 11:06:04;;;;;;;;;;;21.70;61.80;;;;;;5061412;28;19936;-60
2023/08/01 11:08:35;;;;;;;;;;;21.70;61.80;;;;;;5050128;28;19929;-62
2023/08/01 11:11:02;;;;;;;;;;;21.70;61.80;;;;;;5050101;28;19933;-61
2023/08/01 11:13:28;;;;;;;;;;;21.70;61.80;;;;;;5066542;28;19932;-61
2023/08/01 11:15:56;;;;;;;;;;;21.70;61.70;;;;;;5032399;28;20047;-62
2023/08/01 11:18:23;;;;;;;;;;;21.70;61.30;;;;;;5051236;28;19936;-61
2023/08/01 11:20:50;;;;;;;;;;;21.70;60.80;;;;;;5043478;28;19932;-60
2023/08/01 11:23:18;;;;;;;;;;;21.70;60.40;;;;;;5039985;28;19925;-61
2023/08/01 11:25:48;;;;;;;;;;;21.70;60.00;;;;;;5043763;28;20019;-61
2023/08/01 11:28:16;;;;;;;;;;;21.70;59.90;;;;;;5043013;28;20552;-62
2023/08/01 11:30:42;;;;;;;;;;;21.70;59.80;;;;;;5049682;28;19982;-62
2023/08/01 11:33:15;;;;;;;;;;;21.70;59.90;;;;;;5051275;28;19925;-62
2023/08/01 11:35:42;;;;;;;;;;;21.60;59.90;;;;;;5040757;28;19928;-61
2023/08/01 11:38:09;;;;;;;;;;;21.60;59.90;;;;;;5052909;28;19932;-60
2023/08/01 11:40:37;;;;;;;;;;;21.60;60.00;;;;;;5035201;28;19925;-60
2023/08/01 11:43:04;;;;;;;;;;;21.60;60.00;;;;;;5066854;28;20006;-61
2023/08/01 11:45:31;;;;;;;;;;;21.60;60.10;;;;;;5052523;28;19931;-58
2023/08/01 11:47:57;;;;;;;;;;;21.60;60.20;;;;;;5053004;28;19929;-62
2023/08/01 11:50:24;;;;;;;;;;;21.60;60.20;;;;;;5044857;28;19970;-61
2023/08/01 11:52:51;;;;;;;;;;;21.60;60.30;;;;;;5054257;28;19932;-63
2023/08/01 11:55:22;;;;;;;;;;;21.60;60.30;;;;;;5052620;28;19940;-61
2023/08/01 11:57:57;;;;;;;;;;;21.60;60.50;;;;;;5046977;28;19929;-61
2023/08/01 12:00:24;;;;;;;;;;;21.60;60.50;;;;;;5018031;28;19933;-61
2023/08/01 12:02:51;;;;;;;;;;;21.60;60.60;;;;;;5039663;28;19929;-62
2023/08/01 12:05:24;;;;;;;;;;;21.60;60.60;;;;;;5041993;28;20142;-61
2023/08/01 12:07:50;;;;;;;;;;;21.60;60.80;;;;;;5042611;28;19948;-62
2023/08/01 12:10:17;;;;;;;;;;;21.70;61.00;;;;;;5043980;28;19971;-62
2023/08/01 12:12:44;;;;;;;;;;;21.70;61.00;;;;;;5052757;28;20049;-62
2023/08/01 12:15:13;;;;;;;;;;;21.70;61.10;;;;;;5068244;28;19929;-63
2023/08/01 12:17:39;;;;;;;;;;;21.70;61.20;;;;;;5033619;28;19925;-62
2023/08/01 12:20:07;;;;;;;;;;;21.70;61.30;;;;;;5049744;28;19987;-61
2023/08/01 12:22:33;;;;;;;;;;;21.70;61.30;;;;;;5044841;28;19929;-61
2023/08/01 12:25:00;;;;;;;;;;;21.70;61.30;;;;;;5036311;28;19925;-62
2023/08/01 12:27:27;;;;;;;;;;;21.70;61.40;;;;;;5068983;28;19985;-62
2023/08/01 12:29:54;;;;;;;;;;;21.70;61.50;;;;;;5053835;28;19974;-62
2023/08/01 12:32:22;;;;;;;;;;;21.70;61.50;;;;;;5042129;28;19976;-61
2023/08/01 12:34:49;;;;;;;;;;;21.70;61.60;;;;;;5037654;28;19974;-61
2023/08/01 12:37:15;;;;;;;;;;;21.70;61.60;;;;;;5042166;28;19965;-61
2023/08/01 12:39:42;;;;;;;;;;;21.70;61.70;;;;;;5045775;28;19925;-61
2023/08/01 12:42:09;;;;;;;;;;;21.70;61.60;;;;;;5052151;28;19929;-62
2023/08/01 12:44:36;;;;;;;;;;;21.70;61.60;;;;;;5046490;28;20437;-61
2023/08/01 12:47:03;;;;;;;;;;;21.70;61.60;;;;;;5048981;28;20428;-59
2023/08/01 12:49:31;;;;;;;;;;;21.70;61.60;;;;;;5052402;28;19924;-61
2023/08/01 12:51:58;;;;;;;;;;;21.70;61.60;;;;;;5052729;28;19955;-62
2023/08/01 12:54:25;;;;;;;;;;;21.70;61.60;;;;;;5053294;28;20473;-61
2023/08/01 12:56:51;;;;;;;;;;;21.70;61.60;;;;;;5036946;28;19929;-62
2023/08/01 12:59:18;;;;;;;;;;;21.70;61.60;;;;;;5048851;28;19925;-62
2023/08/01 13:01:45;;;;;;;;;;;21.70;61.70;;;;;;5046132;28;19978;-61
2023/08/01 13:04:12;;;;;;;;;;;21.70;61.70;;;;;;5034583;28;19924;-62
2023/08/01 13:06:40;;;;;;;;;;;21.70;61.80;;;;;;5045449;28;19947;-63
2023/08/01 13:09:06;;;;;;;;;;;21.70;61.80;;;;;;5043866;28;19983;-62
2023/08/01 13:11:33;;;;;;;;;;;21.70;61.80;;;;;;5051552;28;19932;-61
2023/08/01 13:14:00;;;;;;;;;;;21.70;62.70;;;;;;5050675;28;19947;-62
2023/08/01 13:16:27;;;;;;;;;;;21.70;62.10;;;;;;5040467;28;19948;-62
2023/08/01 13:18:54;;;;;;;;;;;21.70;62.10;;;;;;5047080;28;19929;-62
2023/08/01 13:21:22;;;;;;;;;;;21.70;62.20;;;;;;5052141;28;20001;-61
2023/08/01 13:23:51;;;;;;;;;;;21.70;62.20;;;;;;5044586;28;19925;-61
2023/08/01 13:26:17;;;;;;;;;;;21.70;62.20;;;;;;5048160;28;19925;-62
2023/08/01 13:28:44;;;;;;;;;;;21.70;62.20;;;;;;5052701;28;19935;-61
2023/08/01 13:31:11;;;;;;;;;;;21.80;62.30;;;;;;5043227;28;19932;-59
2023/08/01 13:33:37;;;;;;;;;;;21.70;62.20;;;;;;5044563;28;19961;-62
2023/08/01 13:36:05;;;;;;;;;;;21.80;62.30;;;;;;5045369;28;19929;-62
2023/08/01 13:38:31;;;;;;;;;;;21.80;62.30;;;;;;5039710;28;19929;-62
2023/08/01 13:41:01;;;;;;;;;;;21.80;62.40;;;;;;5033893;28;19929;-62
2023/08/01 13:43:28;;;;;;;;;;;21.80;62.40;;;;;;5052442;28;19975;-62
2023/08/01 13:45:54;;;;;;;;;;;21.80;62.40;;;;;;5044243;28;19987;-62
2023/08/01 13:48:21;;;;;;;;;;;21.80;62.40;;;;;;5039929;28;19929;-62
2023/08/01 13:50:48;;;;;;;;;;;21.80;62.60;;;;;;5046598;28;20385;-60
2023/08/01 13:53:16;;;;;;;;;;;21.80;62.60;;;;;;5041172;28;19928;-62
2023/08/01 13:55:42;;;;;;;;;;;21.80;62.60;;;;;;5042997;28;19924;-63
2023/08/01 13:58:11;;;;;;;;;;;21.80;62.60;;;;;;5043504;28;19924;-61
2023/08/01 14:00:38;;;;;;;;;;;21.80;62.60;;;;;;5048327;28;20369;-61
2023/08/01 14:03:04;;;;;;;;;;;21.90;62.70;;;;;;5049625;28;19929;-61
2023/08/01 14:05:31;;;;;;;;;;;21.80;62.60;;;;;;5049285;28;20307;-61
2023/08/01 14:07:59;;;;;;;;;;;21.80;62.60;;;;;;5049636;28;19931;-62
2023/08/01 14:10:26;;;;;;;;;;;21.90;62.70;;;;;;5049380;28;19975;-60
2023/08/01 14:12:53;;;;;;;;;;;21.90;62.80;;;;;;5049747;28;19936;-62
2023/08/01 14:15:22;;;;;;;;;;;21.90;62.80;;;;;;5047585;28;19951;-62